sensor_id;sensor_type;location;lat;lon;timestamp;temperature;humidity
38458;DHT22;24239;48.058;10.486;2022-12-18T00:01:25;-3.80;99.90
38458;DHT22;24239;48.058;10.486;2022-12-18T00:03:52;-4.10;99.90
38458;DHT22;24239;48.058;10.486;2022-12-18T00:06:19;-4.50;99.90
38458;DHT22;24239;48.058;10.486;2022-12-18T00:08:45;-4.50;99.90
38458;DHT22;24239;48.058;10.486;2022-12-18T00:11:14;-4.40;99.90
38458;DHT22;24239;48.058;10.486;2022-12-18T00:13:40;-4.50;99.90
38458;DHT22;24239;48.058;10.486;2022-12-18T00:16:11;-3.30;99.90
38458;DHT22;24239;48.058;10.486;2022-12-18T00:18:37;-4.40;99.90
38458;DHT22;24239;48.058;10.486;2022-12-18T00:21:06;-3.40;99.90
38458;DHT22;24239;48.058;10.486;2022-12-18T00:23:33;-4.50;99.90
38458;DHT22;24239;48.058;10.486;2022-12-18T00:26:01;-4.40;99.90
38458;DHT22;24239;48.058;10.486;2022-12-18T00:28:27;-4.10;99.90
38458;DHT22;24239;48.058;10.486;2022-12-18T00:31:06;-4.10;99.90
38458;DHT22;24239;48.058;10.486;2022-12-18T00:33:33;-4.90;99.90
38458;DHT22;24239;48.058;10.486;2022-12-18T00:36:04;-4.40;99.90
38458;DHT22;24239;48.058;10.486;2022-12-18T00:38:30;-4.50;99.90
38458;DHT22;24239;48.058;10.486;2022-12-18T00:40:58;-3.60;99.90
38458;DHT22;24239;48.058;10.486;2022-12-18T00:43:27;-4.40;99.90
38458;DHT22;24239;48.058;10.486;2022-12-18T00:45:53;-4.30;99.90
38458;DHT22;24239;48.058;10.486;2022-12-18T00:48:19;-4.10;99.90
38458;DHT22;24239;48.058;10.486;2022-12-18T00:50:47;-4.60;99.90
38458;DHT22;24239;48.058;10.486;2022-12-18T00:53:14;-4.30;99.90
38458;DHT22;24239;48.058;10.486;2022-12-18T00:55:40;-4.50;99.90
38458;DHT22;24239;48.058;10.486;2022-12-18T00:58:08;-4.60;99.90
38458;DHT22;24239;48.058;10.486;2022-12-18T01:00:34;-4.10;99.90
38458;DHT22;24239;48.058;10.486;2022-12-18T01:03:00;-4.20;99.90
38458;DHT22;24239;48.058;10.486;2022-12-18T01:05:29;-4.80;99.90
38458;DHT22;24239;48.058;10.486;2022-12-18T01:07:55;-4.70;99.90
38458;DHT22;24239;48.058;10.486;2022-12-18T01:10:22;-3.90;99.90
38458;DHT22;24239;48.058;10.486;2022-12-18T01:12:51;-4.60;99.90
38458;DHT22;24239;48.058;10.486;2022-12-18T01:15:17;-4.90;99.90
38458;DHT22;24239;48.058;10.486;2022-12-18T01:17:43;-4.90;99.90
38458;DHT22;24239;48.058;10.486;2022-12-18T01:20:10;-4.80;99.90
38458;DHT22;24239;48.058;10.486;2022-12-18T01:22:37;-4.80;99.90
38458;DHT22;24239;48.058;10.486;2022-12-18T01:25:07;-4.30;99.90
38458;DHT22;24239;48.058;10.486;2022-12-18T01:27:39;-4.80;99.90
38458;DHT22;24239;48.058;10.486;2022-12-18T01:30:05;-4.50;99.90
38458;DHT22;24239;48.058;10.486;2022-12-18T01:32:32;-4.70;99.90
38458;DHT22;24239;48.058;10.486;2022-12-18T01:34:57;-4.30;99.90
38458;DHT22;24239;48.058;10.486;2022-12-18T01:37:26;-4.30;99.90
38458;DHT22;24239;48.058;10.486;2022-12-18T01:39:52;-4.60;99.90
38458;DHT22;24239;48.058;10.486;2022-12-18T01:42:19;-4.50;99.90
38458;DHT22;24239;48.058;10.486;2022-12-18T01:47:21;-4.80;99.90
38458;DHT22;24239;48.058;10.486;2022-12-18T01:49:50;-4.80;99.90
38458;DHT22;24239;48.058;10.486;2022-12-18T01:52:17;-4.60;99.90
38458;DHT22;24239;48.058;10.486;2022-12-18T01:54:44;-4.70;99.90
38458;DHT22;24239;48.058;10.486;2022-12-18T01:57:11;-4.70;99.90
38458;DHT22;24239;48.058;10.486;2022-12-18T01:59:37;-4.20;99.90
38458;DHT22;24239;48.058;10.486;2022-12-18T02:02:04;-4.80;99.90
38458;DHT22;24239;48.058;10.486;2022-12-18T02:04:30;-4.00;99.90
38458;DHT22;24239;48.058;10.486;2022-12-18T02:07:07;-4.90;99.90
38458;DHT22;24239;48.058;10.486;2022-12-18T02:09:46;-5.00;99.90
38458;DHT22;24239;48.058;10.486;2022-12-18T02:12:16;-5.00;99.90
38458;DHT22;24239;48.058;10.486;2022-12-18T02:14:50;-4.50;99.90
38458;DHT22;24239;48.058;10.486;2022-12-18T02:17:22;-5.20;99.90
38458;DHT22;24239;48.058;10.486;2022-12-18T02:27:45;-5.30;99.90
38458;DHT22;24239;48.058;10.486;2022-12-18T02:30:12;-4.90;99.90
38458;DHT22;24239;48.058;10.486;2022-12-18T02:32:45;-4.50;99.90
38458;DHT22;24239;48.058;10.486;2022-12-18T02:35:27;-4.30;99.90
38458;DHT22;24239;48.058;10.486;2022-12-18T02:37:54;-4.90;99.90
38458;DHT22;24239;48.058;10.486;2022-12-18T02:40:23;-4.70;99.90
38458;DHT22;24239;48.058;10.486;2022-12-18T02:42:49;-5.20;99.90
38458;DHT22;24239;48.058;10.486;2022-12-18T02:45:15;-5.00;99.90
38458;DHT22;24239;48.058;10.486;2022-12-18T02:47:47;-5.20;99.90
38458;DHT22;24239;48.058;10.486;2022-12-18T02:52:53;-4.80;99.90
38458;DHT22;24239;48.058;10.486;2022-12-18T03:01:13;-5.10;99.90
38458;DHT22;24239;48.058;10.486;2022-12-18T03:04:11;-5.90;99.90
38458;DHT22;24239;48.058;10.486;2022-12-18T03:06:43;-3.80;99.90
38458;DHT22;24239;48.058;10.486;2022-12-18T03:09:17;-4.70;99.90
38458;DHT22;24239;48.058;10.486;2022-12-18T03:11:50;-4.60;99.90
38458;DHT22;24239;48.058;10.486;2022-12-18T03:14:38;-4.90;99.90
38458;DHT22;24239;48.058;10.486;2022-12-18T03:17:09;-4.10;99.90
38458;DHT22;24239;48.058;10.486;2022-12-18T03:19:37;-5.10;99.90
38458;DHT22;24239;48.058;10.486;2022-12-18T03:22:07;-4.80;99.90
38458;DHT22;24239;48.058;10.486;2022-12-18T03:24:35;-4.60;99.90
38458;DHT22;24239;48.058;10.486;2022-12-18T03:27:07;-4.80;99.90
38458;DHT22;24239;48.058;10.486;2022-12-18T03:29:47;-4.70;99.90
38458;DHT22;24239;48.058;10.486;2022-12-18T03:32:26;-5.00;99.90
38458;DHT22;24239;48.058;10.486;2022-12-18T03:34:53;-4.90;99.90
38458;DHT22;24239;48.058;10.486;2022-12-18T03:37:23;-4.90;99.90
38458;DHT22;24239;48.058;10.486;2022-12-18T03:39:48;-4.80;99.90
38458;DHT22;24239;48.058;10.486;2022-12-18T03:42:33;-5.00;99.90
38458;DHT22;24239;48.058;10.486;2022-12-18T03:50:39;-5.30;99.90
38458;DHT22;24239;48.058;10.486;2022-12-18T03:56:03;-4.70;99.90
38458;DHT22;24239;48.058;10.486;2022-12-18T03:58:32;-5.40;99.90
38458;DHT22;24239;48.058;10.486;2022-12-18T04:01:05;-5.00;99.90
38458;DHT22;24239;48.058;10.486;2022-12-18T04:03:34;-5.20;99.90
38458;DHT22;24239;48.058;10.486;2022-12-18T04:06:05;-5.10;99.90
38458;DHT22;24239;48.058;10.486;2022-12-18T04:08:32;-5.40;99.90
38458;DHT22;24239;48.058;10.486;2022-12-18T04:11:06;-5.40;99.90
38458;DHT22;24239;48.058;10.486;2022-12-18T04:13:35;-5.20;99.90
38458;DHT22;24239;48.058;10.486;2022-12-18T04:16:01;-4.90;99.90
38458;DHT22;24239;48.058;10.486;2022-12-18T04:18:27;-5.10;99.90
38458;DHT22;24239;48.058;10.486;2022-12-18T04:20:53;-4.80;99.90
38458;DHT22;24239;48.058;10.486;2022-12-18T04:23:18;-4.90;99.90
38458;DHT22;24239;48.058;10.486;2022-12-18T04:25:46;-5.20;99.90
38458;DHT22;24239;48.058;10.486;2022-12-18T04:28:15;-4.80;99.90
38458;DHT22;24239;48.058;10.486;2022-12-18T04:30:41;-4.90;99.90
38458;DHT22;24239;48.058;10.486;2022-12-18T04:33:11;-5.00;99.90
38458;DHT22;24239;48.058;10.486;2022-12-18T04:35:38;-5.20;99.90
38458;DHT22;24239;48.058;10.486;2022-12-18T04:38:05;-5.10;99.90
38458;DHT22;24239;48.058;10.486;2022-12-18T04:40:32;-5.00;99.90
38458;DHT22;24239;48.058;10.486;2022-12-18T04:43:00;-4.70;99.90
38458;DHT22;24239;48.058;10.486;2022-12-18T04:45:26;-4.80;99.90
38458;DHT22;24239;48.058;10.486;2022-12-18T04:47:51;-4.90;99.90
38458;DHT22;24239;48.058;10.486;2022-12-18T04:50:17;-4.50;99.90
38458;DHT22;24239;48.058;10.486;2022-12-18T04:52:43;-4.00;99.90
38458;DHT22;24239;48.058;10.486;2022-12-18T04:55:09;-4.30;99.90
38458;DHT22;24239;48.058;10.486;2022-12-18T04:57:35;-5.30;99.90
38458;DHT22;24239;48.058;10.486;2022-12-18T05:00:02;-5.00;99.90
38458;DHT22;24239;48.058;10.486;2022-12-18T05:02:29;-5.10;99.90
38458;DHT22;24239;48.058;10.486;2022-12-18T05:04:54;-5.50;99.90
38458;DHT22;24239;48.058;10.486;2022-12-18T05:07:20;-5.10;99.90
38458;DHT22;24239;48.058;10.486;2022-12-18T05:09:46;-5.50;99.90
38458;DHT22;24239;48.058;10.486;2022-12-18T05:12:15;-5.00;99.90
38458;DHT22;24239;48.058;10.486;2022-12-18T05:14:41;-5.80;99.90
38458;DHT22;24239;48.058;10.486;2022-12-18T05:17:06;-5.50;99.90
38458;DHT22;24239;48.058;10.486;2022-12-18T05:19:35;-5.60;99.90
38458;DHT22;24239;48.058;10.486;2022-12-18T05:22:04;-5.40;99.90
38458;DHT22;24239;48.058;10.486;2022-12-18T05:24:30;-5.50;99.90
38458;DHT22;24239;48.058;10.486;2022-12-18T05:26:56;-6.00;99.90
38458;DHT22;24239;48.058;10.486;2022-12-18T05:29:22;-5.50;99.90
38458;DHT22;24239;48.058;10.486;2022-12-18T05:31:47;-6.00;99.90
38458;DHT22;24239;48.058;10.486;2022-12-18T05:34:13;-5.50;99.90
38458;DHT22;24239;48.058;10.486;2022-12-18T05:36:39;-6.00;99.90
38458;DHT22;24239;48.058;10.486;2022-12-18T05:39:05;-5.40;99.90
38458;DHT22;24239;48.058;10.486;2022-12-18T05:41:31;-5.40;99.90
38458;DHT22;24239;48.058;10.486;2022-12-18T05:43:58;-5.20;99.90
38458;DHT22;24239;48.058;10.486;2022-12-18T05:46:26;-4.40;99.90
38458;DHT22;24239;48.058;10.486;2022-12-18T05:48:52;-5.60;99.90
38458;DHT22;24239;48.058;10.486;2022-12-18T05:51:21;-5.10;99.90
38458;DHT22;24239;48.058;10.486;2022-12-18T05:53:48;-5.10;99.90
38458;DHT22;24239;48.058;10.486;2022-12-18T05:56:16;-5.40;99.90
38458;DHT22;24239;48.058;10.486;2022-12-18T05:58:46;-5.40;99.90
38458;DHT22;24239;48.058;10.486;2022-12-18T06:01:18;-5.50;99.90
38458;DHT22;24239;48.058;10.486;2022-12-18T06:03:47;-5.00;99.90
38458;DHT22;24239;48.058;10.486;2022-12-18T06:06:19;-4.90;99.90
38458;DHT22;24239;48.058;10.486;2022-12-18T06:08:46;-5.90;99.90
38458;DHT22;24239;48.058;10.486;2022-12-18T06:11:12;-4.80;99.90
38458;DHT22;24239;48.058;10.486;2022-12-18T06:13:38;-6.00;99.90
38458;DHT22;24239;48.058;10.486;2022-12-18T06:16:05;-6.00;99.90
38458;DHT22;24239;48.058;10.486;2022-12-18T06:18:31;-6.00;99.90
38458;DHT22;24239;48.058;10.486;2022-12-18T06:20:58;-5.70;99.90
38458;DHT22;24239;48.058;10.486;2022-12-18T06:23:27;-5.90;99.90
38458;DHT22;24239;48.058;10.486;2022-12-18T06:25:53;-5.40;99.90
38458;DHT22;24239;48.058;10.486;2022-12-18T06:28:19;-5.50;99.90
38458;DHT22;24239;48.058;10.486;2022-12-18T06:30:49;-5.30;99.90
38458;DHT22;24239;48.058;10.486;2022-12-18T06:33:15;-5.60;99.90
38458;DHT22;24239;48.058;10.486;2022-12-18T06:35:42;-5.20;99.90
38458;DHT22;24239;48.058;10.486;2022-12-18T06:38:08;-5.50;99.90
38458;DHT22;24239;48.058;10.486;2022-12-18T06:40:33;-5.30;99.90
38458;DHT22;24239;48.058;10.486;2022-12-18T06:42:59;-5.20;99.90
38458;DHT22;24239;48.058;10.486;2022-12-18T06:45:25;-5.90;99.90
38458;DHT22;24239;48.058;10.486;2022-12-18T06:47:51;-5.50;99.90
38458;DHT22;24239;48.058;10.486;2022-12-18T06:50:17;-5.30;99.90
38458;DHT22;24239;48.058;10.486;2022-12-18T06:52:43;-5.40;99.90
38458;DHT22;24239;48.058;10.486;2022-12-18T06:55:12;-5.30;99.90
38458;DHT22;24239;48.058;10.486;2022-12-18T06:57:38;-5.40;99.90
38458;DHT22;24239;48.058;10.486;2022-12-18T07:00:05;-5.20;99.90
38458;DHT22;24239;48.058;10.486;2022-12-18T07:02:31;-5.60;99.90
38458;DHT22;24239;48.058;10.486;2022-12-18T07:04:57;-5.10;99.90
38458;DHT22;24239;48.058;10.486;2022-12-18T07:07:23;-5.30;99.90
38458;DHT22;24239;48.058;10.486;2022-12-18T07:09:50;-5.50;99.90
38458;DHT22;24239;48.058;10.486;2022-12-18T07:12:16;-5.40;99.90
38458;DHT22;24239;48.058;10.486;2022-12-18T07:14:42;-4.90;99.90
38458;DHT22;24239;48.058;10.486;2022-12-18T07:17:07;-5.00;99.90
38458;DHT22;24239;48.058;10.486;2022-12-18T07:19:33;-5.40;99.90
38458;DHT22;24239;48.058;10.486;2022-12-18T07:21:59;-5.20;99.90
38458;DHT22;24239;48.058;10.486;2022-12-18T07:24:26;-5.40;99.90
38458;DHT22;24239;48.058;10.486;2022-12-18T07:26:54;-5.40;99.90
38458;DHT22;24239;48.058;10.486;2022-12-18T07:29:23;-5.10;99.90
38458;DHT22;24239;48.058;10.486;2022-12-18T07:31:50;-5.60;99.90
38458;DHT22;24239;48.058;10.486;2022-12-18T07:34:16;-5.70;99.90
38458;DHT22;24239;48.058;10.486;2022-12-18T07:36:45;-4.90;99.90
38458;DHT22;24239;48.058;10.486;2022-12-18T07:39:12;-5.80;99.90
38458;DHT22;24239;48.058;10.486;2022-12-18T07:41:40;-5.30;99.90
38458;DHT22;24239;48.058;10.486;2022-12-18T07:44:12;-5.40;99.90
38458;DHT22;24239;48.058;10.486;2022-12-18T07:46:38;-5.30;99.90
38458;DHT22;24239;48.058;10.486;2022-12-18T07:49:04;-4.70;99.90
38458;DHT22;24239;48.058;10.486;2022-12-18T07:51:30;-5.20;99.90
38458;DHT22;24239;48.058;10.486;2022-12-18T07:53:56;-5.30;99.90
38458;DHT22;24239;48.058;10.486;2022-12-18T07:56:25;-5.10;99.90
38458;DHT22;24239;48.058;10.486;2022-12-18T07:58:51;-5.20;99.90
38458;DHT22;24239;48.058;10.486;2022-12-18T08:01:17;-4.80;99.90
38458;DHT22;24239;48.058;10.486;2022-12-18T08:03:43;-4.60;99.90
38458;DHT22;24239;48.058;10.486;2022-12-18T08:06:10;-5.00;99.90
38458;DHT22;24239;48.058;10.486;2022-12-18T08:08:36;-4.80;99.90
38458;DHT22;24239;48.058;10.486;2022-12-18T08:11:02;-4.90;99.90
38458;DHT22;24239;48.058;10.486;2022-12-18T08:13:28;-5.30;99.90
38458;DHT22;24239;48.058;10.486;2022-12-18T08:16:05;-4.50;99.90
38458;DHT22;24239;48.058;10.486;2022-12-18T08:18:36;-5.20;99.90
38458;DHT22;24239;48.058;10.486;2022-12-18T08:21:28;-4.60;99.90
38458;DHT22;24239;48.058;10.486;2022-12-18T08:23:59;-5.20;99.90
38458;DHT22;24239;48.058;10.486;2022-12-18T08:26:28;-4.70;99.90
38458;DHT22;24239;48.058;10.486;2022-12-18T08:28:58;-4.30;99.90
38458;DHT22;24239;48.058;10.486;2022-12-18T08:31:26;-4.80;99.90
38458;DHT22;24239;48.058;10.486;2022-12-18T08:33:53;-4.80;99.90
38458;DHT22;24239;48.058;10.486;2022-12-18T08:36:22;-4.70;99.90
38458;DHT22;24239;48.058;10.486;2022-12-18T08:38:49;-4.30;99.90
38458;DHT22;24239;48.058;10.486;2022-12-18T08:41:16;-4.40;99.90
38458;DHT22;24239;48.058;10.486;2022-12-18T08:43:42;-4.50;99.90
38458;DHT22;24239;48.058;10.486;2022-12-18T08:46:31;-4.20;99.90
38458;DHT22;24239;48.058;10.486;2022-12-18T08:49:00;-4.10;99.90
38458;DHT22;24239;48.058;10.486;2022-12-18T08:51:28;-4.20;99.90
38458;DHT22;24239;48.058;10.486;2022-12-18T08:53:54;-2.90;99.90
38458;DHT22;24239;48.058;10.486;2022-12-18T08:56:20;-3.90;99.90
38458;DHT22;24239;48.058;10.486;2022-12-18T08:58:46;-3.80;99.90
38458;DHT22;24239;48.058;10.486;2022-12-18T09:01:13;-4.10;99.90
38458;DHT22;24239;48.058;10.486;2022-12-18T09:03:39;-4.10;99.90
38458;DHT22;24239;48.058;10.486;2022-12-18T09:06:05;-4.10;99.90
38458;DHT22;24239;48.058;10.486;2022-12-18T09:08:31;-4.30;99.90
38458;DHT22;24239;48.058;10.486;2022-12-18T09:11:00;-4.00;99.90
38458;DHT22;24239;48.058;10.486;2022-12-18T09:13:28;-4.00;99.90
38458;DHT22;24239;48.058;10.486;2022-12-18T09:15:54;-4.30;99.90
38458;DHT22;24239;48.058;10.486;2022-12-18T09:18:22;-3.70;99.90
38458;DHT22;24239;48.058;10.486;2022-12-18T09:20:49;-4.00;99.90
38458;DHT22;24239;48.058;10.486;2022-12-18T09:23:17;-4.30;99.90
38458;DHT22;24239;48.058;10.486;2022-12-18T09:25:43;-4.20;99.90
38458;DHT22;24239;48.058;10.486;2022-12-18T09:28:18;-4.00;99.90
38458;DHT22;24239;48.058;10.486;2022-12-18T09:30:47;-4.00;99.90
38458;DHT22;24239;48.058;10.486;2022-12-18T09:33:16;-3.70;99.90
38458;DHT22;24239;48.058;10.486;2022-12-18T09:35:45;-3.00;99.90
38458;DHT22;24239;48.058;10.486;2022-12-18T09:38:13;-3.20;99.90
38458;DHT22;24239;48.058;10.486;2022-12-18T09:40:46;-3.50;99.90
38458;DHT22;24239;48.058;10.486;2022-12-18T09:43:28;-3.80;99.90
38458;DHT22;24239;48.058;10.486;2022-12-18T09:46:01;-3.70;99.90
38458;DHT22;24239;48.058;10.486;2022-12-18T09:48:32;-3.50;99.90
38458;DHT22;24239;48.058;10.486;2022-12-18T09:51:04;-3.80;99.90
38458;DHT22;24239;48.058;10.486;2022-12-18T09:53:35;-3.60;99.90
38458;DHT22;24239;48.058;10.486;2022-12-18T09:56:10;-3.60;99.90
38458;DHT22;24239;48.058;10.486;2022-12-18T09:58:44;-3.60;99.90
38458;DHT22;24239;48.058;10.486;2022-12-18T10:01:18;-3.60;99.90
38458;DHT22;24239;48.058;10.486;2022-12-18T10:03:47;-2.90;99.90
38458;DHT22;24239;48.058;10.486;2022-12-18T10:16:47;-3.50;99.90
38458;DHT22;24239;48.058;10.486;2022-12-18T10:19:42;-3.40;99.90
38458;DHT22;24239;48.058;10.486;2022-12-18T10:25:23;-3.30;99.90
38458;DHT22;24239;48.058;10.486;2022-12-18T10:27:54;-3.20;99.90
38458;DHT22;24239;48.058;10.486;2022-12-18T10:30:23;-3.30;99.90
38458;DHT22;24239;48.058;10.486;2022-12-18T10:32:49;-2.10;99.90
38458;DHT22;24239;48.058;10.486;2022-12-18T10:35:20;-2.60;99.90
38458;DHT22;24239;48.058;10.486;2022-12-18T10:40:54;-3.20;99.90
38458;DHT22;24239;48.058;10.486;2022-12-18T10:43:42;-3.30;99.90
38458;DHT22;24239;48.058;10.486;2022-12-18T10:48:39;-2.60;99.90
38458;DHT22;24239;48.058;10.486;2022-12-18T10:51:08;-3.00;99.90
38458;DHT22;24239;48.058;10.486;2022-12-18T10:53:36;-3.10;99.90
38458;DHT22;24239;48.058;10.486;2022-12-18T10:56:04;-2.90;99.90
38458;DHT22;24239;48.058;10.486;2022-12-18T10:58:33;-3.10;99.90
38458;DHT22;24239;48.058;10.486;2022-12-18T11:01:17;-2.80;99.90
38458;DHT22;24239;48.058;10.486;2022-12-18T11:06:20;-2.60;99.90
38458;DHT22;24239;48.058;10.486;2022-12-18T11:09:03;-3.20;99.90
38458;DHT22;24239;48.058;10.486;2022-12-18T11:11:29;-2.90;99.90
38458;DHT22;24239;48.058;10.486;2022-12-18T11:14:03;-2.80;99.90
38458;DHT22;24239;48.058;10.486;2022-12-18T11:16:43;-2.90;99.90
38458;DHT22;24239;48.058;10.486;2022-12-18T11:19:35;-2.80;99.90
38458;DHT22;24239;48.058;10.486;2022-12-18T11:22:01;-2.60;99.90
38458;DHT22;24239;48.058;10.486;2022-12-18T11:24:35;-2.30;99.90
38458;DHT22;24239;48.058;10.486;2022-12-18T11:27:06;-2.60;99.90
38458;DHT22;24239;48.058;10.486;2022-12-18T11:29:42;-1.70;99.90
38458;DHT22;24239;48.058;10.486;2022-12-18T11:32:34;-2.20;99.90
38458;DHT22;24239;48.058;10.486;2022-12-18T11:35:15;-2.70;99.90
38458;DHT22;24239;48.058;10.486;2022-12-18T11:37:49;-2.50;99.90
38458;DHT22;24239;48.058;10.486;2022-12-18T11:40:22;-2.30;99.90
38458;DHT22;24239;48.058;10.486;2022-12-18T11:43:16;-2.60;99.90
38458;DHT22;24239;48.058;10.486;2022-12-18T11:45:56;-2.50;99.90
38458;DHT22;24239;48.058;10.486;2022-12-18T11:48:30;-2.90;99.90
38458;DHT22;24239;48.058;10.486;2022-12-18T11:51:00;-2.70;99.90
38458;DHT22;24239;48.058;10.486;2022-12-18T11:53:27;-2.80;99.90
38458;DHT22;24239;48.058;10.486;2022-12-18T11:55:56;-2.80;99.90
38458;DHT22;24239;48.058;10.486;2022-12-18T12:26:11;-2.20;99.90
38458;DHT22;24239;48.058;10.486;2022-12-18T12:33:59;-1.50;99.90
38458;DHT22;24239;48.058;10.486;2022-12-18T12:39:15;-1.90;99.90
38458;DHT22;24239;48.058;10.486;2022-12-18T12:41:42;-2.10;99.90
38458;DHT22;24239;48.058;10.486;2022-12-18T13:28:15;-2.80;99.90
38458;DHT22;24239;48.058;10.486;2022-12-18T13:30:51;-2.90;99.90
38458;DHT22;24239;48.058;10.486;2022-12-18T13:40:54;-3.20;99.90
38458;DHT22;24239;48.058;10.486;2022-12-18T13:46:05;-3.10;99.90
38458;DHT22;24239;48.058;10.486;2022-12-18T13:48:36;-3.30;99.90
38458;DHT22;24239;48.058;10.486;2022-12-18T13:51:06;-3.40;99.90
38458;DHT22;24239;48.058;10.486;2022-12-18T13:53:55;-3.40;99.90
38458;DHT22;24239;48.058;10.486;2022-12-18T13:56:31;-3.40;99.90
38458;DHT22;24239;48.058;10.486;2022-12-18T14:01:47;-3.80;99.90
38458;DHT22;24239;48.058;10.486;2022-12-18T14:04:34;-3.70;99.90
38458;DHT22;24239;48.058;10.486;2022-12-18T14:07:13;-3.80;99.90
38458;DHT22;24239;48.058;10.486;2022-12-18T14:09:45;-3.40;99.90
38458;DHT22;24239;48.058;10.486;2022-12-18T14:12:17;-3.30;99.90
38458;DHT22;24239;48.058;10.486;2022-12-18T14:15:03;-3.40;99.90
38458;DHT22;24239;48.058;10.486;2022-12-18T14:17:32;-3.80;99.90
38458;DHT22;24239;48.058;10.486;2022-12-18T14:19:58;-3.80;99.90
38458;DHT22;24239;48.058;10.486;2022-12-18T14:22:28;-3.20;99.90
38458;DHT22;24239;48.058;10.486;2022-12-18T14:27:46;-3.50;99.90
38458;DHT22;24239;48.058;10.486;2022-12-18T14:30:42;-3.60;99.90
38458;DHT22;24239;48.058;10.486;2022-12-18T14:33:14;-3.80;99.90
38458;DHT22;24239;48.058;10.486;2022-12-18T14:35:52;-4.10;99.90
38458;DHT22;24239;48.058;10.486;2022-12-18T14:38:30;-3.70;99.90
38458;DHT22;24239;48.058;10.486;2022-12-18T15:39:11;-5.20;99.90
38458;DHT22;24239;48.058;10.486;2022-12-18T15:41:38;-5.10;99.90
38458;DHT22;24239;48.058;10.486;2022-12-18T15:44:35;-5.00;99.90
38458;DHT22;24239;48.058;10.486;2022-12-18T15:47:02;-5.00;99.90
38458;DHT22;24239;48.058;10.486;2022-12-18T15:52:52;-5.50;99.90
38458;DHT22;24239;48.058;10.486;2022-12-18T15:55:23;-5.50;99.90
38458;DHT22;24239;48.058;10.486;2022-12-18T15:58:09;-5.30;99.90
38458;DHT22;24239;48.058;10.486;2022-12-18T16:00:37;-4.90;99.90
38458;DHT22;24239;48.058;10.486;2022-12-18T16:03:04;-5.10;99.90
38458;DHT22;24239;48.058;10.486;2022-12-18T16:05:33;-5.40;99.90
38458;DHT22;24239;48.058;10.486;2022-12-18T16:07:59;-4.80;99.90
38458;DHT22;24239;48.058;10.486;2022-12-18T16:10:28;-5.50;99.90
38458;DHT22;24239;48.058;10.486;2022-12-18T16:12:54;-5.20;99.90
38458;DHT22;24239;48.058;10.486;2022-12-18T16:15:20;-5.60;99.90
38458;DHT22;24239;48.058;10.486;2022-12-18T16:17:53;-5.40;99.90
38458;DHT22;24239;48.058;10.486;2022-12-18T16:20:21;-5.20;99.90
38458;DHT22;24239;48.058;10.486;2022-12-18T16:22:50;-5.90;99.90
38458;DHT22;24239;48.058;10.486;2022-12-18T16:25:21;-5.10;99.90
38458;DHT22;24239;48.058;10.486;2022-12-18T16:27:49;-5.80;99.90
38458;DHT22;24239;48.058;10.486;2022-12-18T16:30:17;-5.20;99.90
38458;DHT22;24239;48.058;10.486;2022-12-18T16:32:43;-5.50;99.90
38458;DHT22;24239;48.058;10.486;2022-12-18T16:35:13;-5.30;99.90
38458;DHT22;24239;48.058;10.486;2022-12-18T16:37:40;-5.50;99.90
38458;DHT22;24239;48.058;10.486;2022-12-18T16:40:08;-5.50;99.90
38458;DHT22;24239;48.058;10.486;2022-12-18T16:42:36;-5.60;99.90
38458;DHT22;24239;48.058;10.486;2022-12-18T16:45:05;-5.40;99.90
38458;DHT22;24239;48.058;10.486;2022-12-18T16:47:32;-5.70;99.90
38458;DHT22;24239;48.058;10.486;2022-12-18T16:49:58;-5.60;99.90
38458;DHT22;24239;48.058;10.486;2022-12-18T16:52:24;-5.70;99.90
38458;DHT22;24239;48.058;10.486;2022-12-18T16:54:50;-5.60;99.90
38458;DHT22;24239;48.058;10.486;2022-12-18T16:57:17;-5.70;99.90
38458;DHT22;24239;48.058;10.486;2022-12-18T16:59:44;-5.60;99.90
38458;DHT22;24239;48.058;10.486;2022-12-18T17:02:15;-5.50;99.90
38458;DHT22;24239;48.058;10.486;2022-12-18T17:04:44;-5.60;99.90
38458;DHT22;24239;48.058;10.486;2022-12-18T17:07:10;-5.70;99.90
38458;DHT22;24239;48.058;10.486;2022-12-18T17:09:37;-5.90;99.90
38458;DHT22;24239;48.058;10.486;2022-12-18T17:12:07;-5.80;99.90
38458;DHT22;24239;48.058;10.486;2022-12-18T17:14:33;-5.80;99.90
38458;DHT22;24239;48.058;10.486;2022-12-18T17:17:00;-6.10;99.90
38458;DHT22;24239;48.058;10.486;2022-12-18T17:19:28;-6.20;99.90
38458;DHT22;24239;48.058;10.486;2022-12-18T17:21:54;-6.40;99.90
38458;DHT22;24239;48.058;10.486;2022-12-18T17:24:20;-5.50;99.90
38458;DHT22;24239;48.058;10.486;2022-12-18T17:26:46;-6.40;99.90
38458;DHT22;24239;48.058;10.486;2022-12-18T17:29:17;-6.10;99.90
38458;DHT22;24239;48.058;10.486;2022-12-18T17:31:43;-6.30;99.90
38458;DHT22;24239;48.058;10.486;2022-12-18T17:34:10;-6.70;99.90
38458;DHT22;24239;48.058;10.486;2022-12-18T17:36:36;-6.50;99.90
38458;DHT22;24239;48.058;10.486;2022-12-18T17:39:04;-6.50;99.90
38458;DHT22;24239;48.058;10.486;2022-12-18T17:41:31;-6.90;99.90
38458;DHT22;24239;48.058;10.486;2022-12-18T17:44:02;-6.40;99.90
38458;DHT22;24239;48.058;10.486;2022-12-18T17:46:30;-6.70;99.90
38458;DHT22;24239;48.058;10.486;2022-12-18T17:48:58;-5.80;99.90
38458;DHT22;24239;48.058;10.486;2022-12-18T17:51:24;-6.70;99.90
38458;DHT22;24239;48.058;10.486;2022-12-18T17:53:50;-7.00;99.90
38458;DHT22;24239;48.058;10.486;2022-12-18T17:56:18;-6.80;99.90
38458;DHT22;24239;48.058;10.486;2022-12-18T17:58:44;-6.50;99.90
38458;DHT22;24239;48.058;10.486;2022-12-18T18:01:17;-6.80;99.90
38458;DHT22;24239;48.058;10.486;2022-12-18T18:03:44;-7.20;99.90
38458;DHT22;24239;48.058;10.486;2022-12-18T18:06:10;-6.90;99.90
38458;DHT22;24239;48.058;10.486;2022-12-18T18:08:44;-6.50;99.90
38458;DHT22;24239;48.058;10.486;2022-12-18T18:11:14;-6.80;99.90
38458;DHT22;24239;48.058;10.486;2022-12-18T18:13:59;-6.70;99.90
38458;DHT22;24239;48.058;10.486;2022-12-18T18:18:59;-7.20;99.90
38458;DHT22;24239;48.058;10.486;2022-12-18T18:21:28;-7.10;99.90
38458;DHT22;24239;48.058;10.486;2022-12-18T18:23:54;-6.80;99.90
38458;DHT22;24239;48.058;10.486;2022-12-18T18:26:23;-6.90;99.90
38458;DHT22;24239;48.058;10.486;2022-12-18T18:28:55;-6.80;99.90
38458;DHT22;24239;48.058;10.486;2022-12-18T18:31:21;-7.00;99.90
38458;DHT22;24239;48.058;10.486;2022-12-18T18:33:51;-6.90;99.90
38458;DHT22;24239;48.058;10.486;2022-12-18T18:36:17;-6.40;99.90
38458;DHT22;24239;48.058;10.486;2022-12-18T18:38:43;-6.40;99.90
38458;DHT22;24239;48.058;10.486;2022-12-18T18:41:09;-6.00;99.90
38458;DHT22;24239;48.058;10.486;2022-12-18T18:43:38;-6.90;99.90
38458;DHT22;24239;48.058;10.486;2022-12-18T18:46:05;-5.90;99.90
38458;DHT22;24239;48.058;10.486;2022-12-18T18:48:34;-6.90;99.90
38458;DHT22;24239;48.058;10.486;2022-12-18T18:51:04;-6.90;99.90
38458;DHT22;24239;48.058;10.486;2022-12-18T18:53:34;-7.00;99.90
38458;DHT22;24239;48.058;10.486;2022-12-18T18:56:01;-6.00;99.90
38458;DHT22;24239;48.058;10.486;2022-12-18T18:58:29;-6.10;99.90